Time;durP1;ratioP1;P1;durP2;ratioP2;P2;SDS_P1;SDS_P2;PMS_P1;PMS_P2;Temp;Humidity;BMP_temperature;BMP_pressure;BME280_temperature;BME280_humidity;BME280_pressure;Samples;Min_cycle;Max_cycle;Signal;HPM_P1;HPM_P2
2022/05/30 00:05:07;;;;;;;5.60;1.55;;;8.50;99.90;;;;;;7387000;19;20014;-79
2022/05/30 00:07:42;;;;;;;7.63;1.80;;;8.50;99.90;;;;;;7399691;19;20019;-79
2022/05/30 00:10:33;;;;;;;4.95;1.70;;;8.40;99.90;;;;;;7400547;19;20018;-79
2022/05/30 00:13:23;;;;;;;6.20;1.70;;;8.70;99.90;;;;;;7399967;19;20014;-79
2022/05/30 00:15:53;;;;;;;4.68;1.85;;;;;;;;;;7401056;19;20014;-79
2022/05/30 00:18:22;;;;;;;5.72;1.70;;;8.10;99.90;;;;;;7400742;19;20010;-79
2022/05/30 00:21:04;;;;;;;2.72;1.50;;;8.20;99.90;;;;;;7399436;19;20018;-79
2022/05/30 00:23:36;;;;;;;6.20;1.70;;;8.20;99.90;;;;;;7398055;19;20014;-79
2022/05/30 00:26:11;;;;;;;7.30;1.83;;;8.20;99.90;;;;;;7397924;19;20505;-79
2022/05/30 00:28:40;;;;;;;5.32;1.58;;;8.30;99.90;;;;;;7398071;19;20019;-79
2022/05/30 00:31:12;;;;;;;6.35;1.80;;;8.40;99.90;;;;;;7396865;19;20014;-79
2022/05/30 00:33:47;;;;;;;4.93;1.50;;;7.90;99.90;;;;;;7401083;19;20010;-79
2022/05/30 00:36:43;;;;;;;;;;;;;;;;;;;;;
2022/05/30 00:39:15;;;;;;;4.37;1.60;;;8.10;99.90;;;;;;7397044;19;20018;-80
2022/05/30 00:41:45;;;;;;;3.80;1.33;;;8.50;99.90;;;;;;7399998;19;20022;-79
2022/05/30 00:44:19;;;;;;;4.50;1.38;;;7.90;99.90;;;;;;7396857;19;20483;-79
2022/05/30 00:47:14;;;;;;;3.70;1.30;;;7.90;99.90;;;;;;7398346;19;20033;-79
2022/05/30 00:49:48;;;;;;;4.82;1.65;;;8.20;99.90;;;;;;7400857;19;20018;-79
2022/05/30 00:52:22;;;;;;;7.47;1.65;;;8.00;99.90;;;;;;7395515;19;20022;-79
2022/05/30 00:54:58;;;;;;;4.10;1.67;;;8.00;99.90;;;;;;7396588;19;20365;-79
2022/05/30 00:57:37;;;;;;;6.45;1.70;;;8.00;99.90;;;;;;7397902;19;20006;-79
2022/05/30 01:00:22;;;;;;;2.85;1.38;;;7.80;99.90;;;;;;7400713;19;20035;-79
2022/05/30 01:06:30;;;;;;;4.68;1.60;;;7.80;99.90;;;;;;7399962;19;20022;-79
2022/05/30 01:08:29;;;;;;;5.93;1.70;;;7.90;99.90;;;;;;7396316;19;20018;-79
2022/05/30 01:11:06;;;;;;;4.65;1.77;;;8.00;99.90;;;;;;7398615;19;20028;-79
2022/05/30 01:13:58;;;;;;;4.80;1.33;;;7.80;99.90;;;;;;7395287;19;20054;-79
2022/05/30 01:16:30;;;;;;;7.18;1.70;;;7.70;99.90;;;;;;7392924;19;20015;-79
2022/05/30 01:19:06;;;;;;;6.53;1.85;;;8.00;99.90;;;;;;7398427;19;20018;-79
2022/05/30 01:22:05;;;;;;;5.65;2.17;;;8.40;99.90;;;;;;7393572;19;20025;-79
2022/05/30 01:24:46;;;;;;;7.00;2.58;;;7.90;99.90;;;;;;7395503;19;20074;-79
2022/05/30 01:27:28;;;;;;;5.63;1.83;;;8.00;99.90;;;;;;7396142;19;20043;-79
2022/05/30 01:30:27;;;;;;;5.15;1.58;;;8.00;99.90;;;;;;7397314;19;20049;-79
2022/05/30 01:36:35;;;;;;;4.63;1.75;;;8.10;99.90;;;;;;7395108;19;20011;-80
2022/05/30 01:39:19;;;;;;;;;;;;;;;;;;;;;
2022/05/30 01:42:18;;;;;;;5.78;1.90;;;8.00;99.90;;;;;;7395973;19;20010;-80
2022/05/30 01:44:51;;;;;;;9.00;2.35;;;7.90;99.90;;;;;;7395809;19;20022;-79
2022/05/30 01:47:29;;;;;;;6.68;2.08;;;7.80;99.90;;;;;;7396861;19;20097;-79
2022/05/30 01:49:58;;;;;;;6.72;2.13;;;;;;;;;;7395125;19;20074;-79
2022/05/30 01:52:28;;;;;;;6.07;2.03;;;7.70;99.90;;;;;;7395482;19;20010;-79
2022/05/30 01:54:57;;;;;;;10.32;2.40;;;7.80;99.90;;;;;;7395077;19;20010;-79
2022/05/30 01:57:27;;;;;;;5.32;2.63;;;7.90;99.90;;;;;;7394366;19;20154;-79
2022/05/30 02:00:04;;;;;;;5.97;2.00;;;7.60;99.90;;;;;;7395478;19;20077;-79
2022/05/30 02:02:37;;;;;;;7.68;2.33;;;7.80;99.90;;;;;;7394233;19;20369;-79
2022/05/30 02:05:07;;;;;;;6.85;2.20;;;7.70;99.90;;;;;;7395817;19;20391;-79
2022/05/30 02:07:37;;;;;;;8.68;2.67;;;7.90;99.90;;;;;;7393807;19;20010;-79
2022/05/30 02:10:15;;;;;;;9.82;2.78;;;7.50;99.90;;;;;;7397318;19;20537;-79
2022/05/30 02:12:47;;;;;;;6.18;2.30;;;7.60;99.90;;;;;;7397041;19;20014;-79
2022/05/30 02:15:16;;;;;;;9.20;2.42;;;8.00;99.90;;;;;;7393148;19;20019;-79
2022/05/30 02:17:45;;;;;;;4.80;2.08;;;7.70;99.90;;;;;;7393795;19;20043;-79
2022/05/30 02:20:14;;;;;;;10.02;2.72;;;7.50;99.90;;;;;;7396865;19;20018;-79
2022/05/30 02:22:43;;;;;;;6.72;2.40;;;8.10;99.90;;;;;;7395085;19;20466;-79
2022/05/30 02:25:13;;;;;;;7.32;2.78;;;7.80;99.90;;;;;;7395620;19;20006;-79
2022/05/30 02:27:51;;;;;;;6.93;2.50;;;7.80;99.90;;;;;;7393116;19;20019;-79
2022/05/30 02:30:21;;;;;;;4.93;2.42;;;;;;;;;;7396385;19;20025;-79
2022/05/30 02:36:38;;;;;;;5.35;2.33;;;7.70;99.90;;;;;;7394488;19;20019;-79
2022/05/30 02:38:26;;;;;;;8.68;2.60;;;;;;;;;;7394005;19;20096;-79
2022/05/30 02:40:55;;;;;;;8.52;2.20;;;7.40;99.90;;;;;;7394143;19;20011;-78
2022/05/30 02:43:25;;;;;;;5.78;2.30;;;8.00;99.90;;;;;;7395459;19;20015;-79
2022/05/30 02:45:54;;;;;;;6.97;2.50;;;7.60;99.90;;;;;;7393935;19;20015;-78
2022/05/30 02:48:25;;;;;;;8.90;2.47;;;7.50;99.90;;;;;;7394596;19;20022;-79
2022/05/30 02:50:55;;;;;;;8.05;2.55;;;7.60;99.90;;;;;;7395889;19;20011;-79
2022/05/30 02:53:23;;;;;;;8.27;2.70;;;7.50;99.90;;;;;;7390329;19;20018;-79
2022/05/30 02:55:52;;;;;;;6.72;2.35;;;7.60;99.90;;;;;;7395920;19;20317;-79
2022/05/30 02:58:22;;;;;;;10.65;3.22;;;7.30;99.90;;;;;;7393690;19;20326;-79
2022/05/30 03:00:51;;;;;;;5.07;2.63;;;7.50;99.90;;;;;;7395518;19;20033;-80
2022/05/30 03:03:20;;;;;;;6.68;2.70;;;7.50;99.90;;;;;;7395983;19;20039;-79
2022/05/30 03:05:52;;;;;;;5.60;2.75;;;7.50;99.90;;;;;;7394879;19;20014;-79
2022/05/30 03:08:27;;;;;;;6.75;2.63;;;7.30;99.90;;;;;;7394450;19;20014;-79
2022/05/30 03:10:56;;;;;;;7.00;2.37;;;7.90;99.90;;;;;;7392539;19;20014;-79
2022/05/30 03:13:25;;;;;;;5.10;2.33;;;7.40;99.90;;;;;;7395269;19;20010;-79
2022/05/30 03:15:55;;;;;;;7.47;2.55;;;7.50;99.90;;;;;;7394458;19;20017;-79
2022/05/30 03:18:24;;;;;;;5.82;2.50;;;7.40;99.90;;;;;;7391935;19;20018;-80
2022/05/30 03:20:56;;;;;;;7.03;2.35;;;7.40;99.90;;;;;;7389120;19;20052;-79
2022/05/30 03:23:26;;;;;;;6.22;2.60;;;;;;;;;;7391223;19;20091;-79
2022/05/30 03:25:55;;;;;;;7.60;2.67;;;7.30;99.90;;;;;;7395385;19;20014;-79
2022/05/30 03:28:24;;;;;;;6.10;2.80;;;7.40;99.90;;;;;;7389584;19;20027;-79
2022/05/30 03:30:54;;;;;;;6.13;2.70;;;;;;;;;;7396098;19;20023;-79
2022/05/30 03:33:23;;;;;;;9.75;2.75;;;;;;;;;;7393183;19;20042;-79
2022/05/30 03:35:55;;;;;;;6.78;2.80;;;7.40;99.90;;;;;;7395329;19;20014;-79
2022/05/30 03:38:27;;;;;;;11.93;2.85;;;7.80;99.90;;;;;;7393760;19;20014;-79
2022/05/30 03:40:58;;;;;;;7.05;2.90;;;7.50;99.90;;;;;;7396127;19;20037;-79
2022/05/30 03:43:27;;;;;;;7.38;2.80;;;7.40;99.90;;;;;;7401609;19;20094;-79
2022/05/30 03:45:58;;;;;;;8.57;3.15;;;7.30;99.90;;;;;;7402951;19;20074;-79
2022/05/30 03:48:30;;;;;;;9.45;2.97;;;7.40;99.90;;;;;;7398769;19;20417;-79
2022/05/30 03:51:02;;;;;;;5.45;2.88;;;7.40;99.90;;;;;;7398769;19;20548;-79
2022/05/30 03:53:34;;;;;;;9.52;2.70;;;7.50;99.90;;;;;;7401504;19;20018;-79
2022/05/30 03:56:03;;;;;;;7.03;3.08;;;7.80;99.90;;;;;;7402417;19;20022;-79
2022/05/30 03:58:32;;;;;;;6.72;3.10;;;7.40;99.90;;;;;;7402061;19;20018;-79
2022/05/30 04:01:01;;;;;;;9.07;3.10;;;7.40;99.90;;;;;;7399265;19;20032;-80
2022/05/30 04:03:31;;;;;;;5.75;2.67;;;7.30;99.90;;;;;;7399819;19;20077;-79
2022/05/30 04:06:03;;;;;;;8.45;3.20;;;8.40;99.90;;;;;;7401314;19;20208;-80
2022/05/30 04:08:32;;;;;;;5.63;2.63;;;7.90;99.90;;;;;;7396811;19;20834;-79
2022/05/30 04:11:02;;;;;;;6.13;2.72;;;7.90;99.90;;;;;;7399171;19;20010;-80
2022/05/30 04:13:33;;;;;;;4.60;2.70;;;7.40;99.90;;;;;;7398467;19;20037;-79
2022/05/30 04:16:11;;;;;;;7.53;2.50;;;7.40;99.90;;;;;;7400030;19;20010;-79
2022/05/30 04:18:40;;;;;;;6.68;2.80;;;7.40;99.90;;;;;;7399229;19;20336;-79
2022/05/30 04:21:13;;;;;;;7.18;2.75;;;7.50;99.90;;;;;;7401196;19;20060;-80
2022/05/30 04:23:44;;;;;;;7.07;2.88;;;7.30;99.90;;;;;;7400816;19;20022;-80
2022/05/30 04:26:15;;;;;;;6.82;2.10;;;7.70;99.90;;;;;;7397547;19;20010;-79
2022/05/30 04:28:50;;;;;;;3.90;2.40;;;7.70;99.90;;;;;;7399828;19;20490;-80
2022/05/30 04:31:25;;;;;;;4.90;2.08;;;;;;;;;;7401317;19;20014;-79
2022/05/30 04:33:54;;;;;;;7.25;2.70;;;7.20;99.90;;;;;;7402258;19;20011;-80
2022/05/30 04:36:30;;;;;;;5.00;2.00;;;7.70;99.90;;;;;;7397932;19;20015;-80
2022/05/30 04:39:00;;;;;;;9.70;2.38;;;7.30;99.90;;;;;;7397515;19;21103;-79
2022/05/30 04:41:29;;;;;;;3.97;2.13;;;;;;;;;;7402571;19;20494;-79
2022/05/30 04:43:59;;;;;;;5.20;2.05;;;7.30;99.90;;;;;;7399912;19;20019;-80
2022/05/30 04:46:28;;;;;;;5.25;2.30;;;7.30;99.90;;;;;;7398890;19;20416;-79
2022/05/30 04:49:00;;;;;;;5.68;2.40;;;7.40;99.90;;;;;;7397615;19;20015;-79
2022/05/30 04:51:35;;;;;;;6.18;2.45;;;7.40;99.90;;;;;;7401976;19;20091;-80
2022/05/30 04:54:05;;;;;;;6.53;2.80;;;7.20;99.90;;;;;;7396262;19;20352;-79
2022/05/30 04:56:34;;;;;;;5.90;2.30;;;7.40;99.90;;;;;;7395455;19;20018;-79
2022/05/30 04:59:04;;;;;;;4.90;2.35;;;;;;;;;;7400322;19;20015;-79
2022/05/30 05:01:37;;;;;;;7.28;2.50;;;7.50;99.90;;;;;;7399308;19;20015;-79
2022/05/30 05:04:11;;;;;;;5.13;2.43;;;7.50;99.90;;;;;;7396097;19;20018;-79
2022/05/30 05:06:51;;;;;;;6.43;2.45;;;7.60;99.90;;;;;;7398335;19;20016;-79
2022/05/30 05:09:31;;;;;;;6.55;2.22;;;7.60;99.90;;;;;;7400708;19;20355;-79
2022/05/30 05:12:00;;;;;;;5.13;2.60;;;;;;;;;;7396441;19;20019;-80
2022/05/30 05:14:34;;;;;;;4.65;2.20;;;;;;;;;;7389621;19;20036;-79
2022/05/30 05:17:08;;;;;;;6.80;2.90;;;7.80;99.90;;;;;;7395989;19;20007;-79
2022/05/30 05:19:39;;;;;;;6.30;3.38;;;7.70;99.90;;;;;;7397237;19;20094;-79
2022/05/30 05:22:23;;;;;;;5.70;2.22;;;8.00;99.90;;;;;;7400631;19;20050;-79
2022/05/30 05:24:54;;;;;;;;;;;7.90;99.90;;;;;;7400256;19;20014;-79
2022/05/30 05:27:24;;;;;;;8.40;2.88;;;8.50;99.90;;;;;;7398172;19;20427;-79
2022/05/30 05:29:56;;;;;;;5.32;2.20;;;7.90;99.90;;;;;;7396008;19;20410;-79
2022/05/30 05:32:27;;;;;;;8.40;2.35;;;7.60;99.90;;;;;;7398518;19;20019;-79
2022/05/30 05:35:08;;;;;;;5.43;2.53;;;8.00;99.90;;;;;;7399589;19;20015;-79
2022/05/30 05:37:42;;;;;;;3.90;1.80;;;7.90;99.90;;;;;;7400897;19;20018;-79
2022/05/30 05:40:13;;;;;;;4.45;2.08;;;8.00;99.90;;;;;;7395788;19;20023;-80
2022/05/30 05:42:43;;;;;;;4.72;2.13;;;;;;;;;;7398683;19;20025;-79
2022/05/30 05:45:13;;;;;;;2.97;1.75;;;8.10;99.90;;;;;;7397987;19;20491;-79
2022/05/30 05:47:42;;;;;;;4.47;2.17;;;8.20;99.90;;;;;;7394120;19;20538;-79
2022/05/30 05:50:13;;;;;;;8.93;2.47;;;8.20;99.90;;;;;;7398618;19;20010;-80
2022/05/30 05:52:44;;;;;;;2.90;1.63;;;8.20;99.90;;;;;;7397980;19;20022;-80
2022/05/30 05:55:14;;;;;;;4.43;1.90;;;8.70;99.90;;;;;;7399211;19;20019;-80
2022/05/30 05:57:43;;;;;;;4.95;2.13;;;;;;;;;;7395322;19;20018;-80
2022/05/30 06:00:13;;;;;;;5.13;1.95;;;8.50;99.90;;;;;;7396211;19;20481;-81
2022/05/30 06:02:43;;;;;;;4.72;1.73;;;8.20;99.90;;;;;;7397548;19;20476;-79
2022/05/30 06:05:13;;;;;;;4.40;1.67;;;8.40;99.90;;;;;;7398008;19;20368;-80
2022/05/30 06:07:46;;;;;;;6.75;1.90;;;8.10;99.90;;;;;;7388529;19;20474;-79
2022/05/30 06:10:26;;;;;;;6.35;2.35;;;8.50;99.90;;;;;;7394748;19;20018;-81
2022/05/30 06:13:36;;;;;;;4.18;1.92;;;8.50;99.90;;;;;;7395687;19;20023;-89
2022/05/30 06:22:22;;;;;;;6.03;1.40;;;7.00;99.90;;;;;;7389804;19;20014;-79
2022/05/30 06:24:53;;;;;;;6.20;1.40;;;8.80;99.90;;;;;;7392283;19;20014;-80
2022/05/30 06:27:23;;;;;;;4.57;1.35;;;9.00;99.90;;;;;;7394413;19;20036;-80
2022/05/30 06:29:55;;;;;;;4.55;1.40;;;9.10;99.90;;;;;;7392777;19;20507;-80
2022/05/30 06:32:37;;;;;;;3.95;1.60;;;9.20;99.90;;;;;;7392626;19;20385;-80
2022/05/30 06:35:07;;;;;;;4.47;1.30;;;9.00;99.90;;;;;;7393697;19;20003;-80
2022/05/30 06:37:36;;;;;;;3.78;1.50;;;9.60;99.90;;;;;;7395009;19;20015;-80
2022/05/30 06:40:17;;;;;;;5.20;1.60;;;9.40;99.90;;;;;;7394047;19;20429;-79
2022/05/30 06:42:47;;;;;;;2.75;1.45;;;9.40;99.90;;;;;;7393620;19;20395;-80
2022/05/30 06:45:17;;;;;;;4.68;1.70;;;9.40;99.90;;;;;;7393357;19;20014;-79
2022/05/30 06:47:46;;;;;;;2.90;1.45;;;9.70;99.90;;;;;;7393206;19;20007;-80
2022/05/30 06:50:19;;;;;;;6.97;1.60;;;9.60;99.90;;;;;;7397702;19;20020;-80
2022/05/30 06:52:48;;;;;;;2.70;1.40;;;9.60;99.90;;;;;;7393708;19;20027;-80
2022/05/30 06:55:22;;;;;;;4.20;1.42;;;9.60;99.90;;;;;;7393238;19;20015;-80
2022/05/30 07:00:47;;;;;;;3.83;1.35;;;9.60;99.90;;;;;;7393449;19;20486;-80
2022/05/30 07:03:18;;;;;;;3.50;1.20;;;9.60;99.90;;;;;;7396640;19;20011;-80
2022/05/30 07:05:51;;;;;;;2.58;1.00;;;9.70;99.90;;;;;;7395246;19;20421;-80
2022/05/30 07:08:30;;;;;;;1.10;0.90;;;9.70;99.90;;;;;;7392983;19;20015;-80
2022/05/30 07:11:03;;;;;;;2.17;0.90;;;9.50;99.90;;;;;;7396902;19;20013;-80
2022/05/30 07:13:33;;;;;;;3.40;1.10;;;9.60;99.90;;;;;;7392901;19;20014;-79
2022/05/30 07:16:03;;;;;;;2.40;1.00;;;9.50;99.90;;;;;;7396948;19;20014;-80
2022/05/30 07:18:32;;;;;;;6.43;1.10;;;9.60;99.90;;;;;;7403349;19;20010;-80
2022/05/30 07:21:03;;;;;;;2.78;1.10;;;9.60;99.90;;;;;;7399242;19;20041;-80
2022/05/30 07:23:43;;;;;;;2.28;0.90;;;9.70;99.90;;;;;;7390229;19;20014;-80
2022/05/30 07:26:22;;;;;;;1.08;0.77;;;9.40;99.90;;;;;;7394907;19;20537;-80
2022/05/30 07:28:52;;;;;;;3.20;1.08;;;9.70;99.90;;;;;;7396695;19;20025;-79
2022/05/30 07:31:25;;;;;;;1.58;1.00;;;9.80;99.90;;;;;;7399800;19;20010;-79
2022/05/30 07:33:55;;;;;;;1.48;0.95;;;9.80;99.90;;;;;;7399968;19;20063;-80
2022/05/30 07:36:28;;;;;;;3.92;0.90;;;9.80;99.90;;;;;;7399084;19;20010;-80
2022/05/30 07:39:08;;;;;;;1.25;0.90;;;9.90;99.90;;;;;;7400283;19;20091;-80
2022/05/30 07:41:55;;;;;;;2.78;0.88;;;10.00;99.90;;;;;;7403430;19;20019;-80
2022/05/30 07:44:25;;;;;;;3.13;0.75;;;10.10;99.90;;;;;;7399742;19;20006;-80
2022/05/30 07:46:55;;;;;;;3.00;0.88;;;10.30;99.90;;;;;;7400793;19;20019;-80
2022/05/30 07:49:29;;;;;;;1.13;0.90;;;10.30;99.90;;;;;;7398005;19;20021;-80
2022/05/30 07:51:59;;;;;;;2.35;0.90;;;10.30;99.90;;;;;;7403494;19;20022;-80
2022/05/30 07:54:28;;;;;;;3.83;1.55;;;10.60;99.90;;;;;;7396328;19;20011;-80
2022/05/30 07:57:00;;;;;;;2.45;0.90;;;10.40;99.90;;;;;;7402296;19;20011;-80
2022/05/30 07:59:30;;;;;;;2.72;1.10;;;;;;;;;;7400141;19;20041;-80
2022/05/30 08:02:00;;;;;;;4.15;1.10;;;10.50;99.90;;;;;;7395071;19;20357;-80
2022/05/30 08:04:29;;;;;;;1.55;1.02;;;10.20;99.90;;;;;;7398709;19;20371;-80
2022/05/30 08:06:58;;;;;;;3.17;1.42;;;10.40;99.90;;;;;;7397227;19;20033;-81
2022/05/30 08:12:13;;;;;;;2.65;1.00;;;9.90;99.90;;;;;;7397603;19;20347;-80
2022/05/30 08:15:14;;;;;;;1.55;1.10;;;10.00;99.90;;;;;;7400133;19;20011;-80
2022/05/30 08:18:09;;;;;;;2.25;1.08;;;10.00;99.90;;;;;;7398283;19;20014;-80
2022/05/30 08:27:14;;;;;;;1.50;0.80;;;10.40;99.90;;;;;;7397200;19;20015;-80
2022/05/30 08:29:47;;;;;;;1.60;1.00;;;10.40;99.90;;;;;;7396052;19;20479;-80
2022/05/30 08:32:35;;;;;;;2.17;1.00;;;10.50;99.90;;;;;;7402600;19;20344;-80
2022/05/30 08:35:06;;;;;;;1.95;1.00;;;10.60;99.90;;;;;;7399605;19;20018;-80
2022/05/30 08:37:42;;;;;;;2.33;1.08;;;10.70;99.90;;;;;;7398664;19;20062;-80
2022/05/30 08:43:00;;;;;;;1.20;1.10;;;10.70;99.90;;;;;;7396125;19;20015;-81
2022/05/30 08:45:34;;;;;;;2.90;1.02;;;10.60;99.90;;;;;;7397256;19;20022;-80
2022/05/30 08:48:33;;;;;;;3.65;0.85;;;10.30;99.90;;;;;;7398722;19;20333;-79
2022/05/30 08:51:37;;;;;;;1.23;0.60;;;10.80;99.90;;;;;;7397193;19;20007;-79
2022/05/30 08:54:32;;;;;;;1.00;0.70;;;10.70;99.90;;;;;;7399288;19;20039;-79
2022/05/30 08:57:04;;;;;;;0.90;0.47;;;10.20;99.90;;;;;;7397328;19;20018;-79
2022/05/30 08:59:59;;;;;;;0.68;0.68;;;10.70;99.90;;;;;;7399579;19;20016;-80
2022/05/30 09:02:40;;;;;;;1.70;0.90;;;10.70;99.90;;;;;;7397377;19;20010;-79
2022/05/30 09:05:17;;;;;;;0.63;0.50;;;10.80;99.90;;;;;;7398885;19;20039;-80
2022/05/30 09:08:07;;;;;;;1.60;0.80;;;10.80;99.90;;;;;;7397583;19;20024;-79
2022/05/30 09:10:44;;;;;;;1.65;0.73;;;11.10;99.90;;;;;;7396322;19;20019;-79
2022/05/30 09:13:20;;;;;;;1.38;0.82;;;11.30;99.90;;;;;;7398650;19;20359;-79
2022/05/30 09:16:06;;;;;;;2.33;0.60;;;11.30;99.90;;;;;;7396717;19;20006;-79
2022/05/30 09:18:48;;;;;;;1.05;0.55;;;11.30;99.90;;;;;;7396086;19;20014;-79
2022/05/30 09:21:22;;;;;;;0.90;0.65;;;11.40;99.90;;;;;;7396596;19;20385;-80
2022/05/30 09:23:58;;;;;;;1.33;0.60;;;11.50;99.90;;;;;;7396685;19;20496;-79
2022/05/30 09:26:33;;;;;;;2.30;0.98;;;11.60;99.90;;;;;;7395311;19;20349;-79
2022/05/30 09:29:10;;;;;;;3.05;1.08;;;11.60;99.90;;;;;;7397432;19;20022;-79
2022/05/30 09:32:14;;;;;;;1.52;0.80;;;11.80;99.90;;;;;;7396183;19;20018;-79
2022/05/30 09:34:46;;;;;;;1.75;0.70;;;11.80;99.90;;;;;;7397461;19;20021;-79
2022/05/30 09:37:30;;;;;;;2.85;1.20;;;11.70;99.90;;;;;;7399021;19;20019;-80
2022/05/30 09:39:59;;;;;;;1.85;0.80;;;11.70;99.90;;;;;;7398934;19;20017;-79
2022/05/30 09:42:32;;;;;;;2.22;0.80;;;11.70;99.90;;;;;;7395992;19;20018;-79
2022/05/30 09:45:11;;;;;;;1.80;0.90;;;11.90;99.90;;;;;;7395761;19;20363;-79
2022/05/30 09:48:00;;;;;;;3.90;1.10;;;11.50;99.90;;;;;;7396187;19;20020;-79
2022/05/30 09:50:30;;;;;;;1.70;1.10;;;11.10;99.90;;;;;;7393801;19;20006;-79
2022/05/30 09:53:02;;;;;;;2.25;1.10;;;11.10;99.90;;;;;;7395190;19;20021;-79
2022/05/30 09:55:36;;;;;;;3.05;1.10;;;11.20;99.90;;;;;;7397920;19;20042;-79
2022/05/30 09:58:09;;;;;;;2.33;0.85;;;10.90;99.90;;;;;;7396912;19;20367;-80
2022/05/30 10:00:49;;;;;;;2.92;1.20;;;10.70;99.90;;;;;;7394924;19;20483;-79
2022/05/30 10:03:33;;;;;;;1.50;0.98;;;10.60;99.90;;;;;;7395245;19;20010;-79
2022/05/30 10:06:15;;;;;;;1.35;0.85;;;10.30;99.90;;;;;;7395793;19;20021;-79
2022/05/30 10:08:52;;;;;;;2.42;1.00;;;10.30;99.90;;;;;;7394610;19;20021;-79
2022/05/30 10:12:09;;;;;;;2.13;0.90;;;10.10;99.90;;;;;;7389979;19;20022;-81
2022/05/30 10:14:40;;;;;;;2.33;1.10;;;10.40;99.90;;;;;;7392891;19;20027;-79
2022/05/30 10:17:17;;;;;;;2.33;1.00;;;10.40;99.90;;;;;;7384398;19;20040;-79
2022/05/30 10:20:28;;;;;;;;;;;;;;;;;;;;;
2022/05/30 10:33:59;;;;;;;2.17;1.00;;;11.00;99.90;;;;;;7390489;19;20026;-85
2022/05/30 10:36:56;;;;;;;1.52;0.90;;;10.90;99.90;;;;;;7394438;19;20018;-90
2022/05/30 10:39:55;;;;;;;2.88;1.20;;;11.20;99.90;;;;;;7393497;19;20010;-89
2022/05/30 10:42:37;;;;;;;2.10;1.15;;;11.10;99.90;;;;;;7395567;19;20019;-85
2022/05/30 10:45:16;;;;;;;3.60;1.05;;;11.10;99.90;;;;;;7390948;19;20035;-88
2022/05/30 10:47:52;;;;;;;1.85;0.95;;;11.20;99.90;;;;;;7395661;19;20017;-87
2022/05/30 10:50:26;;;;;;;1.85;0.90;;;11.20;99.90;;;;;;7394428;19;20074;-87
2022/05/30 10:53:30;;;;;;;3.05;1.00;;;11.20;99.90;;;;;;7392271;19;20019;-87
2022/05/30 10:56:05;;;;;;;1.60;1.10;;;11.10;99.90;;;;;;7392717;19;20475;-88
2022/05/30 10:58:39;;;;;;;4.70;1.10;;;11.00;99.90;;;;;;7395339;19;20074;-90
2022/05/30 11:01:14;;;;;;;1.55;0.90;;;10.90;99.90;;;;;;7392295;19;20028;-88
2022/05/30 11:03:50;;;;;;;2.30;1.20;;;11.00;99.90;;;;;;7395994;19;20030;-90
2022/05/30 11:06:23;;;;;;;;;;;11.10;99.90;;;;;;7394636;19;20363;-91
2022/05/30 11:09:04;;;;;;;1.25;0.90;;;11.00;99.90;;;;;;7391868;19;19934;-90
2022/05/30 11:11:42;;;;;;;3.28;1.00;;;11.20;99.90;;;;;;7394135;19;20023;-90
2022/05/30 11:14:22;;;;;;;2.05;1.00;;;11.40;99.90;;;;;;7387966;19;20035;-80
2022/05/30 11:16:59;;;;;;;1.25;0.77;;;11.40;99.90;;;;;;7390612;19;20518;-83
2022/05/30 11:19:38;;;;;;;1.80;0.80;;;11.60;99.90;;;;;;7387902;19;20380;-79
2022/05/30 11:22:15;;;;;;;0.70;0.70;;;11.80;99.90;;;;;;7387274;19;20022;-79
2022/05/30 11:24:52;;;;;;;1.85;0.90;;;12.10;99.90;;;;;;7391125;19;20034;-79
2022/05/30 11:27:36;;;;;;;0.98;0.80;;;12.20;99.90;;;;;;7394503;19;20073;-79
2022/05/30 11:30:27;;;;;;;1.25;0.80;;;12.30;99.90;;;;;;7393165;19;20011;-79
2022/05/30 11:33:20;;;;;;;1.80;0.90;;;12.60;99.90;;;;;;7392486;19;20023;-79
2022/05/30 11:36:00;;;;;;;1.75;0.98;;;12.50;99.90;;;;;;7390538;19;20026;-79
2022/05/30 11:38:47;;;;;;;2.95;0.90;;;12.40;99.90;;;;;;7394252;19;20078;-79
2022/05/30 11:41:40;;;;;;;3.00;0.90;;;12.40;99.90;;;;;;7392589;19;20482;-78
2022/05/30 11:44:32;;;;;;;1.10;0.80;;;12.40;99.90;;;;;;7391756;19;20081;-79
2022/05/30 11:47:07;;;;;;;1.13;0.75;;;12.00;99.90;;;;;;7393659;19;20014;-79
2022/05/30 11:49:40;;;;;;;1.52;0.70;;;12.20;99.90;;;;;;7391418;19;20015;-79
2022/05/30 11:52:22;;;;;;;3.03;0.80;;;12.00;99.90;;;;;;7392051;19;20017;-80
2022/05/30 11:55:06;;;;;;;1.80;0.73;;;12.00;99.90;;;;;;7393593;19;20022;-79
2022/05/30 11:57:46;;;;;;;0.95;0.68;;;12.00;99.90;;;;;;7392249;19;20030;-79
2022/05/30 12:00:32;;;;;;;2.63;1.10;;;12.20;99.90;;;;;;7392803;19;20393;-79
2022/05/30 12:03:43;;;;;;;1.13;0.70;;;12.10;99.90;;;;;;7398842;19;20122;-79
2022/05/30 12:06:37;;;;;;;1.20;0.70;;;12.00;99.90;;;;;;7396879;19;20534;-79
2022/05/30 12:09:40;;;;;;;1.58;0.60;;;12.30;99.90;;;;;;7398787;19;20006;-79
2022/05/30 12:12:27;;;;;;;1.00;0.68;;;12.50;99.90;;;;;;7400474;19;20006;-79
2022/05/30 12:15:39;;;;;;;3.05;0.93;;;12.50;99.90;;;;;;7398222;19;20014;-79
2022/05/30 12:24:44;;;;;;;1.58;0.80;;;12.40;99.90;;;;;;7400721;19;20062;-79
2022/05/30 12:27:40;;;;;;;0.80;0.70;;;12.30;99.90;;;;;;7397541;19;20044;-79
2022/05/30 12:30:37;;;;;;;4.13;0.98;;;12.30;99.90;;;;;;7397572;19;20015;-79
2022/05/30 12:33:53;;;;;;;2.30;1.00;;;11.90;99.90;;;;;;7399116;19;20007;-79
2022/05/30 12:37:07;;;;;;;3.08;1.13;;;12.20;99.90;;;;;;7397405;19;20033;-79
2022/05/30 12:39:40;;;;;;;2.67;1.10;;;12.10;99.90;;;;;;7397758;19;20347;-79
2022/05/30 12:42:25;;;;;;;1.65;0.80;;;12.40;99.90;;;;;;7397643;19;20482;-79
2022/05/30 12:44:57;;;;;;;1.70;0.80;;;12.10;99.90;;;;;;7397323;19;20015;-79
2022/05/30 12:47:33;;;;;;;2.88;1.00;;;12.00;99.90;;;;;;7402480;19;20019;-79
2022/05/30 12:50:43;;;;;;;1.98;1.15;;;11.90;99.90;;;;;;7396327;19;20006;-79
2022/05/30 12:53:15;;;;;;;1.70;1.00;;;12.00;99.90;;;;;;7397423;19;20007;-79
2022/05/30 12:55:48;;;;;;;2.72;0.85;;;12.00;99.90;;;;;;7397225;19;20424;-79
2022/05/30 12:58:23;;;;;;;2.25;0.98;;;11.90;99.90;;;;;;7397131;19;20494;-79
2022/05/30 13:01:26;;;;;;;1.20;0.70;;;11.70;99.90;;;;;;7397206;19;20018;-79
2022/05/30 13:04:07;;;;;;;4.38;1.10;;;11.70;99.90;;;;;;7399766;19;20759;-79
2022/05/30 13:06:56;;;;;;;2.40;1.55;;;11.70;99.90;;;;;;7397203;19;20014;-79
2022/05/30 13:09:40;;;;;;;4.63;2.30;;;12.00;99.90;;;;;;7394587;19;20007;-78
2022/05/30 13:15:23;;;;;;;1.27;0.90;;;11.90;99.90;;;;;;7393556;19;20014;-79
2022/05/30 13:18:11;;;;;;;3.63;1.30;;;11.90;99.90;;;;;;7393762;19;20011;-79
2022/05/30 13:20:47;;;;;;;3.00;0.90;;;11.90;99.90;;;;;;7400089;19;20015;-79
2022/05/30 13:23:28;;;;;;;0.98;0.80;;;11.90;99.90;;;;;;7395492;19;20014;-79
2022/05/30 13:26:00;;;;;;;1.70;1.10;;;12.00;99.90;;;;;;7395538;19;20018;-79
2022/05/30 13:28:34;;;;;;;0.88;0.65;;;13.20;99.90;;;;;;7400247;19;20512;-79
2022/05/30 13:31:06;;;;;;;1.90;0.80;;;12.10;99.90;;;;;;7395009;19;20011;-79
2022/05/30 13:33:39;;;;;;;1.60;0.70;;;12.20;99.90;;;;;;7393823;19;20010;-79
2022/05/30 13:36:15;;;;;;;0.95;0.70;;;12.20;99.90;;;;;;7395790;19;20004;-79
2022/05/30 13:38:50;;;;;;;1.92;1.10;;;12.20;99.90;;;;;;7395342;19;20033;-79
2022/05/30 13:41:28;;;;;;;2.80;1.00;;;12.30;99.90;;;;;;7395458;19;20026;-79
2022/05/30 13:43:59;;;;;;;0.90;0.70;;;12.60;99.90;;;;;;7393644;19;20518;-79
2022/05/30 13:46:31;;;;;;;0.63;0.60;;;12.50;99.90;;;;;;7398210;19;20022;-79
2022/05/30 13:49:00;;;;;;;0.93;0.77;;;12.70;99.90;;;;;;7396041;19;20015;-79
2022/05/30 13:51:34;;;;;;;1.10;0.90;;;12.80;99.90;;;;;;7390875;19;20078;-79
2022/05/30 13:54:09;;;;;;;2.92;1.10;;;12.70;99.90;;;;;;7395339;19;20465;-79
2022/05/30 13:56:39;;;;;;;2.35;0.90;;;12.70;99.90;;;;;;7395428;19;20346;-79
2022/05/30 13:59:21;;;;;;;1.40;0.90;;;12.80;99.90;;;;;;7394901;19;20035;-79
2022/05/30 14:01:58;;;;;;;2.08;1.05;;;12.60;99.90;;;;;;7396264;19;20014;-79
2022/05/30 14:04:33;;;;;;;3.08;1.17;;;12.90;99.90;;;;;;7398904;19;20025;-79
2022/05/30 14:07:04;;;;;;;3.90;2.10;;;12.90;99.90;;;;;;7392186;19;20422;-80
2022/05/30 14:09:37;;;;;;;22.60;11.73;;;12.80;99.90;;;;;;7388491;19;20026;-80
2022/05/30 14:12:07;;;;;;;14.52;9.45;;;12.80;99.90;;;;;;7399386;19;20014;-80
2022/05/30 14:14:44;;;;;;;5.05;2.90;;;12.90;99.90;;;;;;7393710;19;20019;-79
2022/05/30 14:17:14;;;;;;;1.67;1.20;;;12.80;99.90;;;;;;7394277;19;20033;-79
2022/05/30 14:19:44;;;;;;;5.32;2.20;;;12.70;99.90;;;;;;7394396;19;20375;-79
2022/05/30 14:22:17;;;;;;;8.15;7.15;;;12.40;99.90;;;;;;7394363;19;20023;-79
2022/05/30 14:24:58;;;;;;;7.22;6.43;;;12.50;99.90;;;;;;7393346;19;20025;-79
2022/05/30 14:27:31;;;;;;;5.55;4.00;;;12.90;99.90;;;;;;7395213;19;20038;-79
2022/05/30 14:30:03;;;;;;;3.50;2.10;;;12.30;99.90;;;;;;7394027;19;20500;-79
2022/05/30 14:32:35;;;;;;;3.30;2.00;;;12.40;99.90;;;;;;7395170;19;20031;-79
2022/05/30 14:35:11;;;;;;;1.00;0.80;;;12.30;99.90;;;;;;7394898;19;20013;-79
2022/05/30 14:37:42;;;;;;;2.72;2.53;;;12.80;99.90;;;;;;7393838;19;20098;-79
2022/05/30 14:40:24;;;;;;;2.22;1.70;;;12.50;99.90;;;;;;7393781;19;20011;-79
2022/05/30 14:42:58;;;;;;;3.35;1.90;;;12.70;99.90;;;;;;7393939;19;20033;-79
2022/05/30 14:45:34;;;;;;;1.95;1.42;;;13.00;99.90;;;;;;7394818;19;20011;-79